Time,TemperatureF,DewpointF,PressureIn,WindDirection,WindDirectionDegrees,WindSpeedMPH,WindSpeedGustMPH,Humidity,HourlyPrecipIn,Conditions,Clouds,dailyrainin,SoftwareType,DateUTC
2013-09-10 00:13:00,64.1,63.0,30.05,East,79,0.0,1.0,97,0.00,,,0.00,weatherlink.com 1.10,2013-09-10 04:13:00,
2013-09-10 00:28:00,63.9,63.0,30.05,East,79,0.0,0.0,97,0.00,,,0.00,weatherlink.com 1.10,2013-09-10 04:28:00,
2013-09-10 00:43:00,63.9,63.0,30.05,East,79,0.0,0.0,98,0.00,,,0.00,weatherlink.com 1.10,2013-09-10 04:43:00,
2013-09-10 00:58:00,64.0,64.0,30.04,East,79,0.0,0.0,98,0.00,,,0.00,weatherlink.com 1.10,2013-09-10 04:58:00,
2013-09-10 01:13:00,64.2,64.0,30.04,East,79,0.0,0.0,98,0.00,,,0.00,weatherlink.com 1.10,2013-09-10 05:13:00,
2013-09-10 01:28:00,64.2,64.0,30.04,East,79,0.0,0.0,98,0.00,,,0.00,weatherlink.com 1.10,2013-09-10 05:28:00,
2013-09-10 01:43:00,64.0,64.0,30.04,East,79,0.0,1.0,98,0.00,,,0.00,weatherlink.com 1.10,2013-09-10 05:43:00,
2013-09-10 01:58:00,63.7,63.0,30.04,East,79,0.0,1.0,98,0.00,,,0.00,weatherlink.com 1.10,2013-09-10 05:58:00,
2013-09-10 02:13:00,63.4,63.0,30.04,East,79,0.0,0.0,98,0.00,,,0.00,weatherlink.com 1.10,2013-09-10 06:13:00,
2013-09-10 02:28:00,63.0,63.0,30.04,East,79,0.0,0.0,98,0.00,,,0.00,weatherlink.com 1.10,2013-09-10 06:28:00,
2013-09-10 02:43:00,62.7,62.0,30.04,East,79,0.0,1.0,98,0.00,,,0.00,weatherlink.com 1.10,2013-09-10 06:43:00,
2013-09-10 02:58:00,62.4,62.0,30.03,East,79,0.0,0.0,98,0.00,,,0.00,weatherlink.com 1.10,2013-09-10 06:58:00,
2013-09-10 03:13:00,62.2,62.0,30.03,East,79,0.0,0.0,98,0.00,,,0.00,weatherlink.com 1.10,2013-09-10 07:13:00,
2013-09-10 03:28:00,61.8,61.0,30.03,East,79,0.0,0.0,98,0.00,,,0.00,weatherlink.com 1.10,2013-09-10 07:28:00,
2013-09-10 03:43:00,61.7,62.0,30.03,East,80,0.0,2.0,99,0.00,,,0.00,weatherlink.com 1.10,2013-09-10 07:43:00,
2013-09-10 03:58:00,61.5,61.0,30.04,East,81,0.0,1.0,99,0.00,,,0.00,weatherlink.com 1.10,2013-09-10 07:58:00,
2013-09-10 04:13:00,61.3,61.0,30.04,East,81,0.0,1.0,99,0.00,,,0.00,weatherlink.com 1.10,2013-09-10 08:13:00,
2013-09-10 04:28:00,61.1,61.0,30.04,East,81,0.0,0.0,99,0.00,,,0.00,weatherlink.com 1.10,2013-09-10 08:28:00,
2013-09-10 04:43:00,60.9,61.0,30.05,East,81,0.0,0.0,99,0.00,,,0.00,weatherlink.com 1.10,2013-09-10 08:43:00,
2013-09-10 04:58:00,60.8,61.0,30.05,East,81,0.0,1.0,99,0.00,,,0.00,weatherlink.com 1.10,2013-09-10 08:58:00,
2013-09-10 05:13:00,60.6,60.0,30.05,East,81,0.0,0.0,99,0.00,,,0.00,weatherlink.com 1.10,2013-09-10 09:13:00,
2013-09-10 05:28:00,60.5,60.0,30.06,East,81,0.0,0.0,99,0.00,,,0.00,weatherlink.com 1.10,2013-09-10 09:28:00,
2013-09-10 05:43:00,60.5,60.0,30.06,East,81,0.0,0.0,99,0.00,,,0.00,weatherlink.com 1.10,2013-09-10 09:43:00,
2013-09-10 05:58:00,60.5,60.0,30.07,East,81,0.0,0.0,99,0.00,,,0.00,weatherlink.com 1.10,2013-09-10 09:58:00,
2013-09-10 06:13:00,60.4,60.0,30.07,East,81,0.0,0.0,99,0.00,,,0.00,weatherlink.com 1.10,2013-09-10 10:13:00,
2013-09-10 06:28:00,60.3,60.0,30.07,East,81,0.0,0.0,99,0.00,,,0.00,weatherlink.com 1.10,2013-09-10 10:28:00,
2013-09-10 06:43:00,60.4,60.0,30.08,East,81,0.0,0.0,99,0.00,,,0.00,weatherlink.com 1.10,2013-09-10 10:43:00,
2013-09-10 06:58:00,60.4,60.0,30.08,East,81,0.0,0.0,99,0.00,,,0.00,weatherlink.com 1.10,2013-09-10 10:58:00,
2013-09-10 07:13:00,60.6,60.0,30.08,East,81,0.0,0.0,99,0.00,,,0.00,weatherlink.com 1.10,2013-09-10 11:13:00,
2013-09-10 07:28:00,60.8,61.0,30.08,East,81,0.0,0.0,99,0.00,,,0.00,weatherlink.com 1.10,2013-09-10 11:28:00,
2013-09-10 07:43:00,61.2,61.0,30.08,East,81,0.0,0.0,100,0.00,,,0.00,weatherlink.com 1.10,2013-09-10 11:43:00,
2013-09-10 07:58:00,61.7,62.0,30.08,East,81,0.0,0.0,100,0.00,,,0.00,weatherlink.com 1.10,2013-09-10 11:58:00,
2013-09-10 08:13:00,62.2,62.0,30.08,East,81,0.0,0.0,100,0.00,,,0.00,weatherlink.com 1.10,2013-09-10 12:13:00,
2013-09-10 08:28:00,62.6,63.0,30.09,East,81,0.0,1.0,100,0.00,,,0.00,weatherlink.com 1.10,2013-09-10 12:28:00,
2013-09-10 08:43:00,63.3,63.0,30.09,East,81,0.0,1.0,100,0.00,,,0.00,weatherlink.com 1.10,2013-09-10 12:43:00,
2013-09-10 08:58:00,64.2,64.0,30.09,East,81,0.0,0.0,100,0.00,,,0.00,weatherlink.com 1.10,2013-09-10 12:58:00,
2013-09-10 09:13:00,65.4,65.0,30.09,SSE,148,0.0,1.0,100,0.00,,,0.00,weatherlink.com 1.10,2013-09-10 13:13:00,
2013-09-10 09:28:00,68.6,68.0,30.09,SSE,148,0.0,0.0,98,0.00,,,0.00,weatherlink.com 1.10,2013-09-10 13:28:00,
2013-09-10 09:43:00,71.9,69.0,30.09,SSE,147,0.0,0.0,91,0.00,,,0.00,weatherlink.com 1.10,2013-09-10 13:43:00,
2013-09-10 10:13:00,74.8,70.0,30.10,WSW,255,0.0,-999.0,86,-99.99,,,0.00,weatherlink.com 1.10,2013-09-10 14:13:00,
2013-09-10 10:28:00,76.2,71.0,30.10,WSW,255,0.0,1.0,83,0.00,,,0.00,weatherlink.com 1.10,2013-09-10 14:28:00,
2013-09-10 10:43:00,77.5,72.0,30.10,WSW,255,0.0,1.0,83,0.00,,,0.00,weatherlink.com 1.10,2013-09-10 14:43:00,
2013-09-10 10:58:00,78.7,72.0,30.10,WSW,246,2.0,6.0,80,0.00,,,0.00,weatherlink.com 1.10,2013-09-10 14:58:00,
2013-09-10 11:13:00,79.6,73.0,30.09,West,278,2.0,6.0,79,0.00,,,0.00,weatherlink.com 1.10,2013-09-10 15:13:00,
2013-09-10 11:28:00,80.3,73.0,30.09,West,281,3.0,14.0,77,0.00,,,0.00,weatherlink.com 1.10,2013-09-10 15:28:00,
2013-09-10 11:43:00,81.3,73.0,30.08,West,266,7.0,11.0,76,0.00,,,0.00,weatherlink.com 1.10,2013-09-10 15:43:00,
2013-09-10 11:58:00,81.4,73.0,30.07,SW,230,1.0,13.0,76,0.00,,,0.00,weatherlink.com 1.10,2013-09-10 15:58:00,
2013-09-10 12:14:00,82.1,73.0,30.07,SW,236,7.0,13.0,74,0.00,,,0.00,weatherlink.com 1.10,2013-09-10 16:14:00,
2013-09-10 12:29:00,82.8,74.0,30.07,South,187,1.0,9.0,74,0.00,,,0.00,weatherlink.com 1.10,2013-09-10 16:29:00,
2013-09-10 12:44:00,83.6,74.0,30.06,West,264,3.0,12.0,73,0.00,,,0.00,weatherlink.com 1.10,2013-09-10 16:44:00,
2013-09-10 12:59:00,84.7,74.0,30.06,South,174,1.0,10.0,71,0.00,,,0.00,weatherlink.com 1.10,2013-09-10 16:59:00,
2013-09-10 13:14:00,85.0,74.0,30.07,West,262,6.0,12.0,70,0.00,,,0.00,weatherlink.com 1.10,2013-09-10 17:14:00,
2013-09-10 13:29:00,85.5,74.0,30.06,WSW,253,6.0,17.0,69,0.00,,,0.00,weatherlink.com 1.10,2013-09-10 17:29:00,
2013-09-10 13:44:00,85.7,74.0,30.06,WNW,298,6.0,16.0,69,0.00,,,0.00,weatherlink.com 1.10,2013-09-10 17:44:00,
2013-09-10 13:59:00,86.5,75.0,30.06,SW,225,2.0,14.0,69,0.00,,,0.00,weatherlink.com 1.10,2013-09-10 17:59:00,
2013-09-10 14:14:00,86.5,75.0,30.05,SSW,208,3.0,9.0,68,0.00,,,0.00,weatherlink.com 1.10,2013-09-10 18:14:00,
2013-09-10 14:29:00,86.8,75.0,30.05,West,265,8.0,11.0,67,0.00,,,0.00,weatherlink.com 1.10,2013-09-10 18:29:00,
2013-09-10 14:44:00,87.6,75.0,30.05,WSW,245,5.0,10.0,67,0.00,,,0.00,weatherlink.com 1.10,2013-09-10 18:44:00,
2013-09-10 14:59:00,87.9,75.0,30.05,SW,215,1.0,6.0,66,0.00,,,0.00,weatherlink.com 1.10,2013-09-10 18:59:00,
2013-09-10 15:14:00,87.7,75.0,30.05,WSW,245,7.0,10.0,66,0.00,,,0.00,weatherlink.com 1.10,2013-09-10 19:14:00,
2013-09-10 15:29:00,88.0,75.0,30.04,NW,315,3.0,13.0,66,0.00,,,0.00,weatherlink.com 1.10,2013-09-10 19:29:00,
2013-09-10 15:44:00,88.0,76.0,30.04,West,264,3.0,13.0,67,0.00,,,0.00,weatherlink.com 1.10,2013-09-10 19:44:00,
2013-09-10 15:59:00,88.0,75.0,30.04,NW,311,1.0,11.0,65,0.00,,,0.00,weatherlink.com 1.10,2013-09-10 19:59:00,
2013-09-10 16:14:00,88.3,75.0,30.03,SW,218,3.0,12.0,65,0.00,,,0.00,weatherlink.com 1.10,2013-09-10 20:14:00,
2013-09-10 16:29:00,87.8,75.0,30.03,WSW,240,5.0,14.0,65,0.00,,,0.00,weatherlink.com 1.10,2013-09-10 20:29:00,
2013-09-10 16:44:00,88.3,76.0,30.03,NW,307,2.0,7.0,66,0.00,,,0.00,weatherlink.com 1.10,2013-09-10 20:44:00,
2013-09-10 16:59:00,87.8,75.0,30.03,WSW,247,4.0,12.0,66,0.00,,,0.00,weatherlink.com 1.10,2013-09-10 20:59:00,
2013-09-10 17:14:00,87.7,75.0,30.03,West,266,2.0,8.0,66,0.00,,,0.00,weatherlink.com 1.10,2013-09-10 21:14:00,
2013-09-10 17:29:00,87.4,76.0,30.02,WNW,290,2.0,9.0,68,0.00,,,0.00,weatherlink.com 1.10,2013-09-10 21:29:00,
2013-09-10 17:44:00,87.0,76.0,30.02,West,261,3.0,10.0,69,0.00,,,0.00,weatherlink.com 1.10,2013-09-10 21:44:00,
2013-09-10 17:59:00,86.6,75.0,30.02,WSW,248,4.0,13.0,69,0.00,,,0.00,weatherlink.com 1.10,2013-09-10 21:59:00,
2013-09-10 18:14:00,86.1,76.0,30.02,WSW,240,6.0,8.0,71,0.00,,,0.00,weatherlink.com 1.10,2013-09-10 22:14:00,
2013-09-10 18:29:00,85.5,76.0,30.03,SW,220,4.0,6.0,72,0.00,,,0.00,weatherlink.com 1.10,2013-09-10 22:29:00,
2013-09-10 18:44:00,84.9,76.0,30.03,SSW,205,0.0,2.0,75,0.00,,,0.00,weatherlink.com 1.10,2013-09-10 22:44:00,
2013-09-10 18:59:00,84.1,76.0,30.03,WSW,245,4.0,4.0,76,0.00,,,0.00,weatherlink.com 1.10,2013-09-10 22:59:00,
2013-09-10 19:14:00,82.7,76.0,30.03,West,281,0.0,2.0,79,0.00,,,0.00,weatherlink.com 1.10,2013-09-10 23:14:00,
2013-09-10 19:29:00,80.2,75.0,30.04,West,281,0.0,1.0,85,0.00,,,0.00,weatherlink.com 1.10,2013-09-10 23:29:00,
2013-09-10 19:45:00,78.7,75.0,30.04,West,280,0.0,0.0,88,0.00,,,0.00,weatherlink.com 1.10,2013-09-10 23:45:00,
2013-09-10 20:00:00,77.8,75.0,30.04,West,281,0.0,0.0,90,0.00,,,0.00,weatherlink.com 1.10,2013-09-11 00:00:00,
2013-09-10 20:15:00,77.0,74.0,30.05,West,281,0.0,0.0,91,0.00,,,0.00,weatherlink.com 1.10,2013-09-11 00:15:00,
2013-09-10 20:30:00,76.4,74.0,30.05,West,281,0.0,1.0,92,0.00,,,0.00,weatherlink.com 1.10,2013-09-11 00:30:00,
2013-09-10 20:45:00,75.6,74.0,30.06,West,281,0.0,0.0,94,0.00,,,0.00,weatherlink.com 1.10,2013-09-11 00:45:00,
2013-09-10 21:00:00,74.9,73.0,30.07,West,281,0.0,0.0,94,0.00,,,0.00,weatherlink.com 1.10,2013-09-11 01:00:00,
2013-09-10 21:15:00,74.4,73.0,30.08,West,281,0.0,0.0,95,0.00,,,0.00,weatherlink.com 1.10,2013-09-11 01:15:00,
2013-09-10 21:30:00,73.9,73.0,30.08,West,281,0.0,0.0,96,0.00,,,0.00,weatherlink.com 1.10,2013-09-11 01:30:00,
2013-09-10 21:45:00,73.6,72.0,30.08,West,281,0.0,0.0,96,0.00,,,0.00,weatherlink.com 1.10,2013-09-11 01:45:00,
2013-09-10 22:00:00,73.1,72.0,30.09,West,281,0.0,0.0,97,0.00,,,0.00,weatherlink.com 1.10,2013-09-11 02:00:00,
2013-09-10 22:15:00,72.9,72.0,30.09,West,281,0.0,0.0,97,0.00,,,0.00,weatherlink.com 1.10,2013-09-11 02:15:00,
2013-09-10 22:30:00,72.5,72.0,30.09,West,281,0.0,0.0,97,0.00,,,0.00,weatherlink.com 1.10,2013-09-11 02:30:00,
2013-09-10 22:45:00,72.1,71.0,30.09,West,281,0.0,0.0,97,0.00,,,0.00,weatherlink.com 1.10,2013-09-11 02:45:00,
2013-09-10 23:00:00,71.9,71.0,30.10,West,280,0.0,0.0,98,0.00,,,0.00,weatherlink.com 1.10,2013-09-11 03:00:00,
2013-09-10 23:15:00,71.6,71.0,30.10,West,281,0.0,0.0,98,0.00,,,0.00,weatherlink.com 1.10,2013-09-11 03:15:00,
2013-09-10 23:30:00,71.2,71.0,30.10,West,281,0.0,0.0,98,0.00,,,0.00,weatherlink.com 1.10,2013-09-11 03:30:00,
2013-09-10 23:45:00,71.1,71.0,30.10,West,281,0.0,0.0,98,0.00,,,0.00,weatherlink.com 1.10,2013-09-11 03:45:00,